Time;durP1;ratioP1;P1;durP2;ratioP2;P2;SDS_P1;SDS_P2;PMS_P1;PMS_P2;Temp;Humidity;BMP_temperature;BMP_pressure;BME280_temperature;BME280_humidity;BME280_pressure;Samples;Min_cycle;Max_cycle;Signal;HPM_P1;HPM_P2
2022/11/23 00:00:26;;;;;;;2.33;0.90;;;;;;;18.81;44.84;99465.56;4993125;28;20031;-75
2022/11/23 00:02:53;;;;;;;3.33;1.00;;;;;;;18.81;45.02;99470.84;4995023;28;20280;-72
2022/11/23 00:05:18;;;;;;;3.25;0.90;;;;;;;18.82;44.71;99476.97;4995005;28;20038;-72
2022/11/23 00:07:43;;;;;;;3.35;1.08;;;;;;;18.76;44.97;99461.78;4994393;28;20046;-75
2022/11/23 00:10:09;;;;;;;3.35;1.00;;;;;;;18.75;45.07;99460.94;4994523;28;20046;-73
2022/11/23 00:12:34;;;;;;;3.70;1.20;;;;;;;18.79;44.46;99486.03;5010463;28;20041;-73
2022/11/23 00:14:59;;;;;;;4.65;1.23;;;;;;;18.78;44.74;99473.00;5006211;28;20173;-74
2022/11/23 00:17:25;;;;;;;2.83;0.90;;;;;;;18.78;44.70;99476.44;4995593;28;20030;-73
2022/11/23 00:19:50;;;;;;;2.50;0.88;;;;;;;18.76;44.85;99480.25;4991547;28;20307;-73
2022/11/23 00:22:15;;;;;;;3.58;0.90;;;;;;;18.74;44.96;99480.41;4991432;28;20038;-74
2022/11/23 00:24:41;;;;;;;2.88;1.02;;;;;;;18.77;44.91;99481.88;4997657;28;20080;-74
2022/11/23 00:27:06;;;;;;;3.70;0.90;;;;;;;18.76;44.76;99483.72;4996386;28;20431;-74
2022/11/23 00:29:31;;;;;;;3.33;1.20;;;;;;;18.75;44.71;99489.16;4995259;28;20266;-73
2022/11/23 00:31:56;;;;;;;4.18;1.20;;;;;;;18.72;44.75;99484.19;4993303;28;20069;-73
2022/11/23 00:34:22;;;;;;;2.77;1.07;;;;;;;18.75;44.66;99487.31;4998280;28;20065;-73
2022/11/23 00:36:47;;;;;;;2.20;0.80;;;;;;;18.76;44.44;99494.28;4991825;28;20268;-74
2022/11/23 00:39:12;;;;;;;2.57;0.90;;;;;;;18.73;44.57;99494.59;4996715;28;20629;-74
2022/11/23 00:41:37;;;;;;;2.70;0.90;;;;;;;18.79;44.22;99493.13;4992421;28;20359;-73
2022/11/23 00:44:03;;;;;;;3.40;0.93;;;;;;;18.74;44.68;99503.31;4991759;28;20271;-73
2022/11/23 00:46:28;;;;;;;3.13;0.98;;;;;;;18.70;44.75;99491.47;4993722;28;20033;-74
2022/11/23 00:48:55;;;;;;;2.17;0.70;;;;;;;18.70;44.61;99502.81;4994727;28;20382;-74
2022/11/23 00:51:27;;;;;;;4.35;1.25;;;;;;;18.71;44.34;99487.81;4974398;28;20030;-73
2022/11/23 00:53:53;;;;;;;3.80;1.17;;;;;;;18.71;44.55;99509.78;4996365;28;20030;-75
2022/11/23 00:56:19;;;;;;;4.15;0.98;;;;;;;18.75;44.56;99503.16;4991056;28;20041;-74
2022/11/23 00:58:52;;;;;;;3.17;0.85;;;;;;;18.64;44.50;99501.69;4993425;28;20038;-73
2022/11/23 01:01:20;;;;;;;3.95;0.93;;;;;;;18.72;44.54;99503.47;4996246;28;20065;-74
2022/11/23 01:03:48;;;;;;;3.50;0.90;;;;;;;18.68;44.39;99502.19;4998627;28;20072;-73
2022/11/23 01:06:20;;;;;;;3.40;0.90;;;;;;;18.64;44.44;99500.81;4989843;28;20038;-74
2022/11/23 01:08:49;;;;;;;3.22;0.98;;;;;;;18.70;44.38;99502.81;5002765;28;20038;-75
2022/11/23 01:11:14;;;;;;;2.83;0.98;;;;;;;18.68;44.17;99500.34;4986922;28;20716;-73
2022/11/23 01:13:40;;;;;;;4.47;1.00;;;;;;;18.65;44.41;99503.31;4993681;28;20428;-73
2022/11/23 01:16:23;;;;;;;3.95;0.98;;;;;;;18.66;44.24;99499.69;4989434;28;20538;-75
2022/11/23 01:18:56;;;;;;;3.08;1.02;;;;;;;18.66;44.43;99506.78;4973664;28;20137;-73
2022/11/23 01:21:23;;;;;;;3.00;0.90;;;;;;;18.64;44.41;99504.31;4999796;28;20034;-74
2022/11/23 01:23:49;;;;;;;2.63;1.13;;;;;;;18.62;44.40;99503.63;4990929;28;20034;-74
2022/11/23 01:26:14;;;;;;;3.42;0.90;;;;;;;18.65;44.37;99511.22;4995013;28;20038;-74
2022/11/23 01:28:40;;;;;;;4.03;0.90;;;;;;;18.65;44.51;99511.22;4994960;28;20467;-75
2022/11/23 01:31:08;;;;;;;3.30;1.10;;;;;;;18.62;44.32;99519.47;4991408;28;20076;-75
2022/11/23 01:33:34;;;;;;;3.97;0.93;;;;;;;18.56;44.43;99506.09;4993776;28;20953;-75
2022/11/23 01:35:59;;;;;;;2.72;0.85;;;;;;;18.62;44.42;99516.00;4995142;28;20033;-74
2022/11/23 01:38:25;;;;;;;4.30;0.90;;;;;;;18.63;44.26;99523.75;5007360;28;20870;-74
2022/11/23 01:40:50;;;;;;;3.33;1.13;;;;;;;18.67;44.12;99530.38;4999329;28;20372;-74
2022/11/23 01:43:17;;;;;;;3.65;1.20;;;;;;;18.62;44.43;99532.66;4993216;28;20015;-74
2022/11/23 01:45:55;;;;;;;2.50;0.80;;;;;;;18.64;44.06;99527.22;4986547;28;20029;-73
2022/11/23 01:48:25;;;;;;;3.47;1.00;;;;;;;18.66;44.24;99538.47;4994653;28;20038;-74
2022/11/23 01:50:52;;;;;;;4.00;1.05;;;;;;;18.65;44.19;99534.16;4986523;28;20446;-74
2022/11/23 01:53:18;;;;;;;2.63;0.90;;;;;;;18.64;44.07;99535.13;4994556;28;20544;-73
2022/11/23 01:55:46;;;;;;;3.55;1.23;;;;;;;18.64;44.12;99538.63;4995182;28;20030;-73
2022/11/23 01:58:14;;;;;;;3.05;1.00;;;;;;;18.60;43.88;99534.63;4989647;28;20062;-74
2022/11/23 02:00:40;;;;;;;3.15;1.00;;;;;;;18.65;44.18;99539.44;4996217;28;20042;-72
2022/11/23 02:03:06;;;;;;;3.22;0.90;;;;;;;18.64;44.26;99535.13;4990416;28;20060;-73
2022/11/23 02:05:45;;;;;;;2.67;0.82;;;;;;;18.60;44.19;99534.63;4981882;28;20022;-74
2022/11/23 02:08:12;;;;;;;3.03;1.00;;;;;;;18.55;44.23;99536.94;4992930;28;20042;-73
2022/11/23 02:10:37;;;;;;;3.28;1.00;;;;;;;18.60;44.31;99536.44;4991366;28;20060;-74
2022/11/23 02:13:07;;;;;;;1.45;0.60;;;;;;;18.60;44.24;99544.38;4989342;28;20030;-73
2022/11/23 02:15:34;;;;;;;2.28;0.80;;;;;;;18.55;44.29;99538.72;4983672;28;20037;-73
2022/11/23 02:18:02;;;;;;;3.25;1.00;;;;;;;18.58;44.23;99543.69;4999060;28;20034;-74
2022/11/23 02:20:27;;;;;;;3.17;1.00;;;;;;;18.56;44.35;99546.47;5011616;28;20466;-73
2022/11/23 02:23:14;;;;;;;3.17;0.93;;;;;;;18.58;44.21;99552.44;4986252;28;20112;-73
2022/11/23 02:25:43;;;;;;;4.10;1.02;;;;;;;18.58;44.22;99549.81;4971934;28;20042;-75
2022/11/23 02:28:10;;;;;;;2.08;0.88;;;;;;;18.49;44.26;99548.94;4986020;28;20061;-74
2022/11/23 02:30:38;;;;;;;3.78;1.20;;;;;;;18.51;44.57;99553.22;4981469;28;20026;-73
2022/11/23 02:33:07;;;;;;;2.03;0.70;;;;;;;18.48;44.21;99542.03;5003872;28;20030;-74
2022/11/23 02:35:33;;;;;;;4.40;1.08;;;;;;;18.55;44.21;99558.03;4990673;28;20041;-74
2022/11/23 02:38:03;;;;;;;2.70;1.00;;;;;;;18.55;44.10;99558.03;5006183;28;20394;-74
2022/11/23 02:40:34;;;;;;;2.53;0.77;;;;;;;18.53;44.24;99554.72;4993347;28;20080;-74
2022/11/23 02:43:00;;;;;;;3.47;0.77;;;;;;;18.51;44.35;99555.88;4987279;28;20487;-73
2022/11/23 02:45:39;;;;;;;3.17;1.08;;;;;;;18.50;44.22;99560.31;4993424;28;20033;-73
2022/11/23 02:48:05;;;;;;;2.72;0.90;;;;;;;18.49;44.16;99561.31;4981498;28;20046;-73
2022/11/23 02:50:31;;;;;;;3.97;1.00;;;;;;;18.46;44.31;99554.53;4985114;28;20477;-74
2022/11/23 02:52:56;;;;;;;3.75;0.85;;;;;;;18.47;44.44;99558.81;4995580;28;20076;-74
2022/11/23 02:55:22;;;;;;;3.20;0.85;;;;;;;18.45;44.08;99563.44;4988564;28;20038;-74
2022/11/23 02:57:47;;;;;;;2.38;0.82;;;;;;;18.46;44.11;99564.25;4999043;28;20107;-74
2022/11/23 03:00:13;;;;;;;2.35;0.80;;;;;;;18.47;44.12;99565.91;4989744;28;20041;-75
2022/11/23 03:02:38;;;;;;;5.07;1.20;;;;;;;18.50;44.13;99562.97;4992386;28;20486;-75
2022/11/23 03:05:04;;;;;;;3.58;0.90;;;;;;;18.51;44.15;99563.78;4989168;28;20093;-74
2022/11/23 03:07:29;;;;;;;3.55;1.10;;;;;;;18.52;43.97;99563.63;4988839;28;20033;-74
2022/11/23 03:09:54;;;;;;;4.10;0.95;;;;;;;18.50;44.08;99568.25;4971666;28;20102;-74
2022/11/23 03:12:20;;;;;;;3.83;0.85;;;;;;;18.45;44.00;99563.44;4996703;28;20128;-72
2022/11/23 03:14:45;;;;;;;3.75;1.15;;;;;;;18.47;44.13;99561.47;4993113;28;20030;-73
2022/11/23 03:17:11;;;;;;;2.75;1.00;;;;;;;18.50;44.29;99562.97;5000414;28;20030;-74
2022/11/23 03:19:36;;;;;;;3.42;0.95;;;;;;;18.53;43.99;99562.63;4994104;28;20121;-73
2022/11/23 03:22:02;;;;;;;3.70;0.95;;;;;;;18.53;43.95;99575.00;4999019;28;20033;-73
2022/11/23 03:24:27;;;;;;;3.92;1.02;;;;;;;18.48;44.15;99564.91;4993927;28;20045;-72
2022/11/23 03:26:53;;;;;;;4.43;1.08;;;;;;;18.42;44.09;99562.91;4990187;28;20026;-74
2022/11/23 03:29:18;;;;;;;3.53;1.00;;;;;;;18.45;44.21;99568.72;4994777;28;20475;-73
2022/11/23 03:31:43;;;;;;;3.45;1.10;;;;;;;18.50;43.98;99573.53;4992999;28;20050;-73
2022/11/23 03:34:09;;;;;;;4.80;1.00;;;;;;;18.43;44.25;99564.56;4999976;28;20362;-73
2022/11/23 03:36:35;;;;;;;3.42;0.90;;;;;;;18.46;43.92;99567.72;5001400;28;20030;-73
2022/11/23 03:39:00;;;;;;;3.67;0.90;;;;;;;18.49;44.01;99570.03;4999096;28;20038;-74
2022/11/23 03:41:26;;;;;;;4.03;0.90;;;;;;;18.49;43.86;99563.94;4996009;28;20041;-74
2022/11/23 03:43:51;;;;;;;4.05;1.20;;;;;;;18.45;43.94;99563.44;4989484;28;20034;-74
2022/11/23 03:46:16;;;;;;;2.90;1.30;;;;;;;18.48;44.06;99572.81;4990050;28;20129;-74
2022/11/23 03:48:42;;;;;;;3.45;0.93;;;;;;;18.44;44.17;99568.88;4994187;28;20042;-73
2022/11/23 03:51:07;;;;;;;3.72;0.90;;;;;;;18.37;44.18;99555.47;4976415;28;20446;-73
2022/11/23 03:53:32;;;;;;;3.77;1.00;;;;;;;18.39;44.12;99569.34;4997795;28;20040;-73
2022/11/23 03:55:57;;;;;;;3.60;1.45;;;;;;;18.37;44.04;99563.38;4998039;28;20275;-73
2022/11/23 03:58:23;;;;;;;2.87;0.90;;;;;;;18.39;43.92;99555.31;4992958;28;20041;-73
2022/11/23 04:00:48;;;;;;;3.93;1.10;;;;;;;18.43;43.99;99565.38;4998005;28;20286;-73
2022/11/23 04:03:13;;;;;;;4.38;1.10;;;;;;;18.44;43.98;99569.69;4993782;28;20279;-73
2022/11/23 04:05:39;;;;;;;2.53;0.90;;;;;;;18.43;43.77;99573.31;4993316;28;20042;-74
2022/11/23 04:08:04;;;;;;;3.55;1.15;;;;;;;18.44;44.01;99574.16;4999352;28;20044;-73
2022/11/23 04:10:29;;;;;;;3.72;1.10;;;;;;;18.41;44.04;99579.72;4994119;28;20080;-74
2022/11/23 04:12:55;;;;;;;5.22;0.95;;;;;;;18.42;43.92;99570.81;4993237;28;20146;-73
2022/11/23 04:15:23;;;;;;;3.55;1.00;;;;;;;18.34;44.06;99571.63;4989170;28;20042;-74
2022/11/23 04:17:48;;;;;;;4.05;1.10;;;;;;;18.39;43.93;99573.75;4989014;28;20065;-73
2022/11/23 04:20:14;;;;;;;3.25;1.30;;;;;;;18.38;43.72;99566.84;4992526;28;20159;-72
2022/11/23 04:22:39;;;;;;;3.75;1.00;;;;;;;18.38;43.98;99566.84;4990987;28;20513;-73
2022/11/23 04:25:05;;;;;;;4.63;1.45;;;;;;;18.37;43.89;99571.28;4990178;28;20033;-74
2022/11/23 04:27:30;;;;;;;2.78;0.90;;;;;;;18.37;44.12;99567.81;4996114;28;20065;-74
2022/11/23 04:29:55;;;;;;;3.38;0.85;;;;;;;18.38;43.71;99556.31;4993391;28;20069;-74
2022/11/23 04:32:21;;;;;;;3.97;1.20;;;;;;;18.39;43.56;99557.94;4986200;28;20961;-73
2022/11/23 04:34:46;;;;;;;2.55;0.82;;;;;;;18.42;43.62;99555.00;4989885;28;20367;-73
2022/11/23 04:37:11;;;;;;;5.38;1.20;;;;;;;18.39;43.50;99550.88;5004739;28;20108;-74
2022/11/23 04:39:36;;;;;;;2.55;0.80;;;;;;;18.36;43.98;99561.75;4992416;28;20034;-75
2022/11/23 04:42:02;;;;;;;4.87;1.67;;;;;;;18.33;43.82;99562.06;4992031;28;20038;-73
2022/11/23 04:44:27;;;;;;;2.53;0.85;;;;;;;18.29;43.95;99564.19;4987774;28;20766;-73
2022/11/23 04:46:52;;;;;;;4.35;1.10;;;;;;;18.36;43.64;99559.09;4995486;28;20574;-74
2022/11/23 04:49:18;;;;;;;4.80;1.00;;;;;;;18.36;44.00;99569.66;4997484;28;20030;-74
2022/11/23 04:51:43;;;;;;;3.47;1.02;;;;;;;18.34;43.81;99565.50;5008728;28;20868;-74
2022/11/23 04:54:08;;;;;;;2.78;0.88;;;;;;;18.34;43.46;99573.41;4991694;28;20030;-71
2022/11/23 04:56:33;;;;;;;4.22;1.02;;;;;;;18.32;43.80;99573.56;4991525;28;20042;-74
2022/11/23 04:58:59;;;;;;;3.03;1.00;;;;;;;18.32;43.48;99570.94;4997145;28;20045;-76
2022/11/23 05:01:24;;;;;;;3.38;1.27;;;;;;;18.31;43.53;99561.38;5008746;28;20036;-72
2022/11/23 05:03:49;;;;;;;4.75;1.17;;;;;;;18.32;43.50;99570.94;4993250;28;20038;-73
2022/11/23 05:06:15;;;;;;;4.10;1.13;;;;;;;18.37;43.42;99568.66;4993093;28;20120;-74
2022/11/23 05:08:41;;;;;;;4.15;1.30;;;;;;;18.37;43.50;99573.91;4996912;28;20038;-74
2022/11/23 05:11:06;;;;;;;3.80;1.42;;;;;;;18.33;43.34;99569.16;4996278;28;20045;-73
2022/11/23 05:13:31;;;;;;;3.10;1.00;;;;;;;18.36;43.59;99553.81;4995032;28;20030;-76
2022/11/23 05:15:57;;;;;;;4.23;1.00;;;;;;;18.33;43.80;99567.31;5012710;28;20072;-75
2022/11/23 05:18:22;;;;;;;3.58;1.00;;;;;;;18.30;43.51;99560.53;4990278;28;20322;-75
2022/11/23 05:20:47;;;;;;;3.92;1.00;;;;;;;18.34;43.69;99563.72;4988982;28;20081;-75
2022/11/23 05:23:13;;;;;;;4.80;1.00;;;;;;;18.33;43.49;99564.69;4994883;28;20393;-74
2022/11/23 05:25:39;;;;;;;4.35;1.17;;;;;;;18.34;43.53;99557.59;4996931;28;20131;-74
2022/11/23 05:28:04;;;;;;;3.85;1.10;;;;;;;18.30;43.51;99557.91;4999003;28;20038;-74
2022/11/23 05:30:30;;;;;;;2.65;0.90;;;;;;;18.28;43.44;99557.25;4994514;28;20918;-75
2022/11/23 05:33:02;;;;;;;3.80;1.02;;;;;;;18.30;43.55;99551.81;4987048;28;20139;-75
2022/11/23 05:35:28;;;;;;;3.83;1.10;;;;;;;18.29;43.41;99561.53;4998629;28;20409;-75
2022/11/23 05:37:53;;;;;;;4.00;1.08;;;;;;;18.29;43.57;99566.81;4990682;28;20521;-75
2022/11/23 05:40:19;;;;;;;3.50;1.30;;;;;;;18.26;43.55;99561.84;4993656;28;20501;-75
2022/11/23 05:42:44;;;;;;;4.20;1.25;;;;;;;18.26;43.56;99559.22;4988422;28;20271;-75
2022/11/23 05:45:09;;;;;;;3.80;1.13;;;;;;;18.29;43.38;99563.34;4993719;28;20034;-73
2022/11/23 05:47:34;;;;;;;4.43;1.25;;;;;;;18.28;43.51;99567.78;4972052;28;20756;-74
2022/11/23 05:50:00;;;;;;;4.40;1.20;;;;;;;18.30;43.35;99571.09;4993271;28;20042;-75
2022/11/23 05:52:25;;;;;;;4.38;1.30;;;;;;;18.30;43.42;99571.09;5007920;28;20284;-74
2022/11/23 05:54:51;;;;;;;4.55;1.00;;;;;;;18.30;43.38;99575.53;4981647;28;20038;-74
2022/11/23 05:57:16;;;;;;;3.22;0.95;;;;;;;18.28;43.11;99572.25;4998566;28;20057;-74
2022/11/23 05:59:42;;;;;;;4.22;1.10;;;;;;;18.27;43.44;99567.94;4983955;28;20080;-74
2022/11/23 06:02:08;;;;;;;3.22;1.00;;;;;;;18.27;43.04;99581.94;4990909;28;20041;-75
2022/11/23 06:04:33;;;;;;;3.70;0.88;;;;;;;18.19;43.32;99558.16;5014615;28;20038;-74
2022/11/23 06:06:59;;;;;;;4.22;1.15;;;;;;;18.20;43.40;99575.66;4992748;28;20033;-75
2022/11/23 06:09:26;;;;;;;4.18;1.20;;;;;;;18.19;43.50;99573.19;4991876;28;20038;-73
2022/11/23 06:11:51;;;;;;;4.13;1.20;;;;;;;18.12;44.00;99570.34;5001031;28;20088;-74
2022/11/23 06:14:16;;;;;;;3.45;1.00;;;;;;;18.18;43.79;99574.16;4987740;28;20062;-73
2022/11/23 06:16:42;;;;;;;2.97;0.90;;;;;;;18.16;44.21;99568.22;4990535;28;20276;-74
2022/11/23 06:19:07;;;;;;;2.47;1.00;;;;;;;18.20;44.08;99572.19;5001112;28;20044;-73
2022/11/23 06:21:32;;;;;;;2.88;1.00;;;;;;;18.17;43.77;99569.88;4989206;28;20856;-73
2022/11/23 06:23:58;;;;;;;4.28;0.95;;;;;;;18.25;43.95;99581.28;4995874;28;20034;-72
2022/11/23 06:26:24;;;;;;;3.05;1.10;;;;;;;18.25;44.12;99576.00;4992277;28;20037;-73
2022/11/23 06:28:49;;;;;;;3.15;0.95;;;;;;;18.30;43.96;99573.72;4989714;28;20740;-75
2022/11/23 06:31:15;;;;;;;2.90;0.90;;;;;;;18.36;43.84;99580.19;4993008;28;20054;-73
2022/11/23 06:33:40;;;;;;;2.92;0.80;;;;;;;18.38;43.96;99577.41;4994253;28;20060;-74
2022/11/23 06:36:06;;;;;;;2.45;0.80;;;;;;;18.41;43.82;99579.72;5000885;28;20530;-74
2022/11/23 06:38:32;;;;;;;3.78;1.27;;;;;;;18.41;43.97;99580.56;4985589;28;20025;-74
2022/11/23 06:40:58;;;;;;;4.45;1.05;;;;;;;18.47;43.82;99587.03;4982881;28;20041;-75
2022/11/23 06:43:24;;;;;;;2.63;0.95;;;;;;;18.49;43.84;99591.13;4998320;28;20142;-74
2022/11/23 06:45:49;;;;;;;3.13;0.90;;;;;;;18.52;43.79;99589.16;4994760;28;20464;-76
2022/11/23 06:48:14;;;;;;;2.72;0.93;;;;;;;18.48;43.72;99572.81;4993236;28;20041;-75
2022/11/23 06:50:39;;;;;;;3.30;1.00;;;;;;;18.50;43.73;99584.06;4988777;28;20033;-75
2022/11/23 06:53:05;;;;;;;2.80;1.10;;;;;;;18.50;43.77;99589.34;5001988;28;20038;-74
2022/11/23 06:55:30;;;;;;;2.67;1.00;;;;;;;18.55;43.63;99591.47;4986958;28;20268;-75
2022/11/23 06:57:56;;;;;;;3.88;0.90;;;;;;;18.57;43.59;99598.28;5000030;28;20034;-74
2022/11/23 07:00:22;;;;;;;3.60;0.80;;;;;;;18.59;43.79;99600.75;4986911;28;20564;-74
2022/11/23 07:02:51;;;;;;;2.15;0.80;;;;;;;18.57;44.03;99605.38;5004586;28;20072;-73
2022/11/23 07:05:17;;;;;;;2.88;0.90;;;;;;;18.59;43.76;99606.84;5012625;28;20022;-74
2022/11/23 07:07:42;;;;;;;4.47;0.98;;;;;;;18.61;43.92;99612.81;5002152;28;20045;-75
2022/11/23 07:10:08;;;;;;;4.38;0.93;;;;;;;18.64;43.62;99614.28;5001272;28;20479;-75
2022/11/23 07:12:33;;;;;;;4.57;0.90;;;;;;;18.64;43.84;99611.66;4987173;28;20093;-72
2022/11/23 07:14:58;;;;;;;3.33;0.90;;;;;;;18.70;43.54;99626.03;4984690;28;20609;-72
2022/11/23 07:17:24;;;;;;;3.60;0.90;;;;;;;18.68;43.61;99615.66;4988905;28;20034;-71
2022/11/23 07:19:49;;;;;;;3.00;1.10;;;;;;;18.66;43.60;99621.09;4995171;28;20790;-72
2022/11/23 07:22:14;;;;;;;3.00;0.90;;;;;;;18.71;43.37;99639.09;4999994;28;20359;-73
2022/11/23 07:24:40;;;;;;;4.70;1.33;;;;;;;18.69;43.46;99633.13;4988320;28;20648;-73
2022/11/23 07:27:05;;;;;;;2.17;0.77;;;;;;;18.70;43.71;99639.25;4998747;28;20029;-72
2022/11/23 07:29:30;;;;;;;3.78;1.00;;;;;;;18.71;43.59;99639.09;4993911;28;20790;-74
2022/11/23 07:31:55;;;;;;;3.70;1.13;;;;;;;18.68;43.87;99647.31;4984685;28;20058;-73
2022/11/23 07:34:21;;;;;;;3.53;1.05;;;;;;;18.64;44.02;99636.25;5000696;28;20033;-73
2022/11/23 07:36:46;;;;;;;3.80;1.00;;;;;;;18.62;43.92;99637.38;4990589;28;20413;-74
2022/11/23 07:39:11;;;;;;;4.23;1.17;;;;;;;18.72;44.25;99655.75;4994949;28;20033;-73
2022/11/23 07:41:36;;;;;;;3.55;1.35;;;;;;;18.72;43.94;99653.09;4988776;28;20748;-73
2022/11/23 07:44:02;;;;;;;3.03;0.85;;;;;;;18.70;44.02;99647.97;4997330;28;20038;-73
2022/11/23 07:46:27;;;;;;;4.85;1.20;;;;;;;18.69;44.36;99656.88;4996527;28;20030;-74
2022/11/23 07:48:58;;;;;;;3.85;1.00;;;;;;;18.66;44.23;99658.03;4997550;28;20034;-74
2022/11/23 07:51:23;;;;;;;2.92;0.88;;;;;;;18.68;44.42;99665.78;4993377;28;20046;-76
2022/11/23 07:53:48;;;;;;;4.50;1.25;;;;;;;18.68;44.65;99668.44;4950551;28;20667;-73
2022/11/23 07:56:13;;;;;;;4.15;1.23;;;;;;;18.70;44.55;99670.91;4999813;28;20096;-73
2022/11/23 07:58:39;;;;;;;3.27;0.97;;;;;;;18.68;44.71;99673.72;5002571;28;20494;-74
2022/11/23 08:01:04;;;;;;;3.63;1.10;;;;;;;18.72;44.55;99674.22;4992859;28;20263;-73
2022/11/23 08:03:29;;;;;;;4.00;1.20;;;;;;;18.74;44.31;99672.22;4995580;28;20275;-73
2022/11/23 08:05:55;;;;;;;2.80;1.00;;;;;;;18.71;44.43;99676.03;4996555;28;20068;-72
2022/11/23 08:08:20;;;;;;;3.47;1.10;;;;;;;18.69;44.58;99672.69;4994558;28;20099;-74
2022/11/23 08:10:45;;;;;;;3.60;1.10;;;;;;;18.72;44.77;99669.75;4992416;28;20038;-73
2022/11/23 08:13:11;;;;;;;3.50;1.20;;;;;;;18.74;44.34;99667.81;4990513;28;20045;-74
2022/11/23 08:15:36;;;;;;;3.10;0.80;;;;;;;18.66;44.79;99665.13;4998975;28;20025;-75
2022/11/23 08:18:03;;;;;;;2.65;0.80;;;;;;;18.73;44.92;99670.59;4994995;28;20484;-73
2022/11/23 08:20:29;;;;;;;3.25;0.90;;;;;;;18.72;44.62;99668.94;4990319;28;20061;-75
2022/11/23 08:22:55;;;;;;;5.10;1.45;;;;;;;18.73;44.68;99666.13;4987170;28;20037;-74
2022/11/23 08:25:22;;;;;;;3.63;1.10;;;;;;;18.76;44.74;99670.28;4996377;28;20486;-74
2022/11/23 08:27:53;;;;;;;5.05;1.13;;;;;;;18.75;44.79;99673.91;4994766;28;20108;-73
2022/11/23 08:30:18;;;;;;;5.05;1.10;;;;;;;18.77;44.70;99677.19;5003462;28;20497;-73
2022/11/23 08:32:44;;;;;;;2.75;1.05;;;;;;;18.79;45.01;99669.97;4996561;28;20160;-74
2022/11/23 08:35:09;;;;;;;3.00;0.80;;;;;;;18.77;44.94;99678.03;4987581;28;20029;-74
2022/11/23 08:37:34;;;;;;;6.10;1.10;;;;;;;18.80;45.01;99677.75;4990168;28;20274;-72
2022/11/23 08:39:59;;;;;;;4.72;1.13;;;;;;;18.77;45.03;99671.91;5001153;28;20350;-73
2022/11/23 08:42:25;;;;;;;3.50;1.00;;;;;;;18.85;44.81;99688.69;4992192;28;20057;-73
2022/11/23 08:44:50;;;;;;;3.63;1.20;;;;;;;18.82;44.84;99678.41;4985453;28;20367;-74
2022/11/23 08:47:15;;;;;;;2.28;0.90;;;;;;;18.84;44.95;99688.84;4983481;28;21181;-75
2022/11/23 08:49:40;;;;;;;5.63;1.10;;;;;;;18.82;45.02;99688.13;4986983;28;20124;-74
2022/11/23 08:52:06;;;;;;;4.40;1.10;;;;;;;18.82;44.98;99681.03;4989435;28;20961;-73
2022/11/23 08:54:31;;;;;;;3.03;1.00;;;;;;;18.85;45.04;99677.31;4999815;28;20275;-73
2022/11/23 08:56:56;;;;;;;3.05;0.90;;;;;;;18.90;45.06;99687.34;4995108;28;20034;-75
2022/11/23 08:59:21;;;;;;;3.17;0.95;;;;;;;18.89;44.74;99681.25;4990500;28;20034;-74
2022/11/23 09:01:47;;;;;;;3.33;1.00;;;;;;;18.90;44.78;99682.06;4997000;28;20907;-75
2022/11/23 09:04:12;;;;;;;2.90;0.88;;;;;;;18.90;44.91;99666.25;5001659;28;20038;-77
2022/11/23 09:06:38;;;;;;;4.72;0.90;;;;;;;18.90;44.56;99674.16;4996309;28;20080;-76
2022/11/23 09:09:03;;;;;;;3.75;1.02;;;;;;;18.87;44.79;99667.41;4993819;28;20125;-75
2022/11/23 09:11:28;;;;;;;6.13;1.30;;;;;;;18.88;44.67;99678.78;4986158;28;20490;-75
2022/11/23 09:13:53;;;;;;;4.30;1.02;;;;;;;18.84;44.47;99667.72;4992174;28;20173;-73
2022/11/23 09:16:21;;;;;;;4.90;1.20;;;;;;;18.92;44.66;99664.28;4989702;28;20117;-75
2022/11/23 09:18:48;;;;;;;4.20;1.13;;;;;;;18.95;44.64;99662.16;4990118;28;20053;-75
2022/11/23 09:21:13;;;;;;;5.82;1.90;;;;;;;18.95;44.74;99671.91;4993043;28;20038;-76
2022/11/23 09:23:39;;;;;;;4.03;0.93;;;;;;;18.87;44.55;99662.13;4995096;28;20042;-75
2022/11/23 09:26:04;;;;;;;3.97;1.20;;;;;;;18.82;44.98;99659.09;4990688;28;20042;-75
2022/11/23 09:28:32;;;;;;;4.85;1.00;;;;;;;18.82;44.75;99646.72;4985083;28;20278;-75
2022/11/23 09:30:57;;;;;;;4.00;1.00;;;;;;;18.83;44.55;99647.53;4991596;28;20077;-74
2022/11/23 09:33:24;;;;;;;3.70;1.17;;;;;;;18.83;44.43;99645.75;4994934;28;20514;-74
2022/11/23 09:35:57;;;;;;;4.43;1.00;;;;;;;18.82;44.62;99648.53;5000637;28;20067;-74
2022/11/23 09:38:22;;;;;;;3.78;1.13;;;;;;;18.84;44.64;99652.69;4999988;28;20037;-73
2022/11/23 09:40:51;;;;;;;4.35;1.10;;;;;;;18.88;44.07;99637.34;4984952;28;20034;-72
2022/11/23 09:43:41;;;;;;;4.18;1.05;;;;;;;18.88;44.12;99637.34;4992233;28;20378;-77
2022/11/23 09:46:35;;;;;;;3.15;0.85;;;;;;;18.85;44.15;99645.63;4997880;28;20030;-74
2022/11/23 09:49:09;;;;;;;5.22;1.20;;;;;;;18.94;43.99;99635.91;4987945;28;21421;-74
2022/11/23 09:51:37;;;;;;;3.40;1.00;;;;;;;19.02;43.82;99638.56;4989682;28;20073;-75
2022/11/23 09:54:27;;;;;;;5.25;1.08;;;;;;;19.09;44.01;99625.56;4994556;28;20425;-75
2022/11/23 09:56:55;;;;;;;5.25;1.10;;;;;;;19.10;43.88;99622.75;4992675;28;20080;-76
2022/11/23 09:59:29;;;;;;;7.45;1.52;;;;;;;19.17;43.93;99621.13;4993800;28;20538;-75
2022/11/23 10:01:56;;;;;;;4.18;1.05;;;;;;;19.20;43.68;99612.03;4994510;28;20038;-76
2022/11/23 10:04:23;;;;;;;6.43;1.40;;;;;;;19.19;43.65;99602.50;4998234;28;20053;-70
2022/11/23 10:06:56;;;;;;;5.00;1.10;;;;;;;19.21;43.44;99609.25;4990623;28;20029;-71
2022/11/23 10:09:52;;;;;;;4.70;1.20;;;;;;;19.29;43.51;99605.81;4989088;28;20042;-72
2022/11/23 10:12:26;;;;;;;3.47;1.00;;;;;;;19.29;43.31;99591.78;4993005;28;20045;-76
2022/11/23 10:15:32;;;;;;;4.65;1.17;;;;;;;19.40;42.99;99596.75;4972294;28;20410;-74
2022/11/23 10:18:24;;;;;;;6.57;1.35;;;;;;;19.38;43.22;99594.25;4978991;28;20038;-74
2022/11/23 10:20:55;;;;;;;3.67;1.02;;;;;;;19.39;43.01;99595.94;4988306;28;20037;-75
2022/11/23 10:23:45;;;;;;;3.70;1.13;;;;;;;19.39;42.91;99592.44;4990182;28;20034;-75
2022/11/23 10:26:17;;;;;;;5.57;1.20;;;;;;;19.34;43.02;99589.47;4996426;28;20049;-71
2022/11/23 10:28:44;;;;;;;4.47;1.23;;;;;;;19.35;42.89;99597.22;4994909;28;20040;-73
2022/11/23 10:31:16;;;;;;;4.95;1.05;;;;;;;19.36;43.01;99596.25;4985594;28;20065;-78
2022/11/23 10:34:01;;;;;;;4.30;0.90;;;;;;;19.33;42.83;99599.22;4989790;28;20054;-72
2022/11/23 10:36:26;;;;;;;7.32;1.00;;;;;;;19.39;42.93;99597.72;4992817;28;20042;-74
2022/11/23 10:38:59;;;;;;;4.32;0.80;;;;;;;19.41;42.98;99590.47;4988996;28;20120;-75
2022/11/23 10:41:25;;;;;;;3.97;1.23;;;;;;;19.43;42.83;99587.69;4996202;28;20033;-72
2022/11/23 10:44:02;;;;;;;5.43;1.10;;;;;;;19.50;42.88;99599.22;4990838;28;20037;-72
2022/11/23 10:46:32;;;;;;;3.25;0.93;;;;;;;19.49;42.73;99582.56;4992354;28;20451;-72
2022/11/23 10:49:12;;;;;;;5.43;1.00;;;;;;;19.47;42.90;99581.91;4991221;28;20031;-75
2022/11/23 10:51:38;;;;;;;4.22;1.10;;;;;;;19.52;42.96;99586.69;5006563;28;20482;-77
2022/11/23 10:54:16;;;;;;;4.30;0.90;;;;;;;19.50;42.86;99583.38;4993545;28;20043;-74
2022/11/23 10:56:46;;;;;;;5.63;0.90;;;;;;;19.46;42.87;99579.44;4989123;28;20113;-79
2022/11/23 10:59:24;;;;;;;4.68;1.10;;;;;;;19.49;42.88;99581.75;4992036;28;20041;-78
2022/11/23 11:02:01;;;;;;;6.35;1.10;;;;;;;19.53;42.83;99568.00;4997153;28;20062;-75
2022/11/23 11:04:26;;;;;;;5.72;0.90;;;;;;;19.56;42.61;99570.31;4996009;28;20026;-76
2022/11/23 11:07:08;;;;;;;4.38;1.00;;;;;;;19.56;42.77;99556.28;4990865;28;20033;-77
2022/11/23 11:09:33;;;;;;;3.85;1.10;;;;;;;19.39;43.06;99551.00;4985774;28;20113;-74
2022/11/23 11:11:59;;;;;;;3.88;1.00;;;;;;;19.27;43.53;99549.69;4990569;28;20032;-73
2022/11/23 11:14:24;;;;;;;2.58;0.90;;;;;;;19.20;43.70;99559.22;4993029;28;20080;-72
2022/11/23 11:16:54;;;;;;;4.80;1.05;;;;;;;19.12;43.96;99552.13;4992932;28;20125;-74
2022/11/23 11:19:19;;;;;;;4.05;0.80;;;;;;;19.07;44.16;99561.53;4993145;28;20069;-73
2022/11/23 11:21:45;;;;;;;3.95;1.00;;;;;;;19.00;44.34;99551.59;4990924;28;20108;-76
2022/11/23 11:24:20;;;;;;;4.88;1.10;;;;;;;19.19;43.99;99550.50;4990746;28;20033;-74
2022/11/23 11:27:01;;;;;;;3.08;0.88;;;;;;;19.26;43.74;99534.81;4987679;28;20138;-73
2022/11/23 11:29:39;;;;;;;6.88;1.00;;;;;;;19.42;43.37;99534.00;4988838;28;20037;-77
2022/11/23 11:32:16;;;;;;;4.70;1.00;;;;;;;19.48;43.14;99524.59;4972462;28;20054;-74
2022/11/23 11:35:05;;;;;;;4.35;0.90;;;;;;;19.51;43.27;99521.63;4989206;28;20050;-78